Time;durP1;ratioP1;P1;durP2;ratioP2;P2;SDS_P1;SDS_P2;PMS_P1;PMS_P2;Temp;Humidity;BMP_temperature;BMP_pressure;BME280_temperature;BME280_humidity;BME280_pressure;Samples;Min_cycle;Max_cycle;Signal;HPM_P1;HPM_P2
2021/03/08 00:02:00;;;;;;;23.95;4.47;;;;;;;;;;5005263;28;20038;-64
2021/03/08 00:04:26;;;;;;;19.23;3.75;;;;;;;;;;5006581;28;20049;-64
2021/03/08 00:06:51;;;;;;;25.52;3.80;;;;;;;;;;5008013;28;20049;-64
2021/03/08 00:09:20;;;;;;;34.03;5.72;;;;;;;;;;5001323;28;20043;-64
2021/03/08 00:11:46;;;;;;;30.63;5.05;;;;;;;;;;5004403;28;20038;-64
2021/03/08 00:14:12;;;;;;;19.48;4.13;;;;;;;;;;5010808;28;20443;-64
2021/03/08 00:16:38;;;;;;;28.67;4.45;;;;;;;;;;5002791;28;20038;-64
2021/03/08 00:19:04;;;;;;;29.92;4.82;;;;;;;;;;5003119;28;20095;-65
2021/03/08 00:21:30;;;;;;;27.48;4.70;;;;;;;;;;4989481;28;20041;-64
2021/03/08 00:23:56;;;;;;;22.52;4.25;;;;;;;;;;5009736;28;20029;-64
2021/03/08 00:26:22;;;;;;;20.42;4.72;;;;;;;;;;4998824;28;20535;-64
2021/03/08 00:28:48;;;;;;;17.40;5.13;;;;;;;;;;5008877;28;20492;-64
2021/03/08 00:31:14;;;;;;;26.20;4.00;;;;;;;;;;4998100;28;20029;-64
2021/03/08 00:33:43;;;;;;;24.38;4.25;;;;;;;;;;5001890;28;20030;-64
2021/03/08 00:36:09;;;;;;;27.25;4.63;;;;;;;;;;5001955;28;20060;-64
2021/03/08 00:38:34;;;;;;;19.10;3.85;;;;;;;;;;5008272;28;20484;-64
2021/03/08 00:41:00;;;;;;;17.65;3.90;;;;;;;;;;5006262;28;20120;-64
2021/03/08 00:43:26;;;;;;;24.25;4.60;;;;;;;;;;4999639;28;20552;-64
2021/03/08 00:45:52;;;;;;;22.15;4.00;;;;;;;;;;5004899;28;20237;-64
2021/03/08 00:48:21;;;;;;;19.58;4.00;;;;;;;;;;5007316;28;20042;-64
2021/03/08 00:50:47;;;;;;;18.90;4.50;;;;;;;;;;5005251;28;20033;-64
2021/03/08 00:53:13;;;;;;;21.88;4.10;;;;;;;;;;5007303;28;20038;-64
2021/03/08 00:55:39;;;;;;;21.75;5.10;;;;;;;;;;5003779;28;20042;-64
2021/03/08 00:58:04;;;;;;;26.20;4.35;;;;;;;;;;5003120;28;20066;-65
2021/03/08 01:00:31;;;;;;;21.70;4.90;;;;;;;;;;5002112;28;20132;-64
2021/03/08 01:02:57;;;;;;;39.42;5.00;;;;;;;;;;4997584;28;20040;-64
2021/03/08 01:05:24;;;;;;;16.30;3.70;;;;;;;;;;5011829;28;20749;-64
2021/03/08 01:07:51;;;;;;;19.35;3.95;;;;;;;;;;5011382;28;20057;-64
2021/03/08 01:10:21;;;;;;;16.58;3.65;;;;;;;;;;5016826;28;20043;-64
2021/03/08 01:12:47;;;;;;;19.45;4.18;;;;;;;;;;5003918;28;20029;-64
2021/03/08 01:15:14;;;;;;;24.30;4.18;;;;;;;;;;5002207;28;20877;-64
2021/03/08 01:17:40;;;;;;;18.17;4.10;;;;;;;;;;4997650;28;20851;-64
2021/03/08 01:20:16;;;;;;;16.25;4.20;;;;;;;;;;5002940;28;20049;-64
2021/03/08 01:22:42;;;;;;;25.58;4.25;;;;;;;;;;5000592;28;20033;-64
2021/03/08 01:25:13;;;;;;;27.25;4.38;;;;;;;;;;5001459;28;20053;-65
2021/03/08 01:27:39;;;;;;;21.15;4.80;;;;;;;;;;5005287;28;20127;-64
2021/03/08 01:30:08;;;;;;;25.55;4.28;;;;;;;;;;5007807;28;20042;-65
2021/03/08 01:32:36;;;;;;;33.05;4.63;;;;;;;;;;5009116;28;20091;-64
2021/03/08 01:35:02;;;;;;;24.50;4.28;;;;;;;;;;5005945;28;20053;-64
2021/03/08 01:37:28;;;;;;;21.35;5.10;;;;;;;;;;5013767;28;20037;-64
2021/03/08 01:39:57;;;;;;;18.98;4.85;;;;;;;;;;5011814;28;20037;-64
2021/03/08 01:42:23;;;;;;;20.08;4.90;;;;;;;;;;5011446;28;20490;-64
2021/03/08 01:44:49;;;;;;;23.77;5.07;;;;;;;;;;5008758;28;20029;-64
2021/03/08 01:47:15;;;;;;;14.95;4.50;;;;;;;;;;5006187;28;20037;-64
2021/03/08 01:49:41;;;;;;;19.27;4.40;;;;;;;;;;5003051;28;20034;-64
2021/03/08 01:52:08;;;;;;;33.50;5.57;;;;;;;;;;5009718;28;20120;-64
2021/03/08 01:54:34;;;;;;;31.15;4.80;;;;;;;;;;5008955;28;20057;-64
2021/03/08 01:57:01;;;;;;;28.83;5.05;;;;;;;;;;5008983;28;20088;-64
2021/03/08 01:59:29;;;;;;;23.35;4.75;;;;;;;;;;5002223;28;20083;-64
2021/03/08 02:01:56;;;;;;;21.05;4.75;;;;;;;;;;5000208;28;20511;-64
2021/03/08 02:04:22;;;;;;;42.35;5.43;;;;;;;;;;5002420;28;20042;-64
2021/03/08 02:06:48;;;;;;;25.27;5.75;;;;;;;;;;5004567;28;20046;-64
2021/03/08 02:09:17;;;;;;;26.20;5.30;;;;;;;;;;5002777;28;20041;-64
2021/03/08 02:11:46;;;;;;;25.58;4.75;;;;;;;;;;4997288;28;20136;-64
2021/03/08 02:14:12;;;;;;;27.40;5.90;;;;;;;;;;5001759;28;20037;-64
2021/03/08 02:16:43;;;;;;;21.17;5.60;;;;;;;;;;5006466;28;20033;-64
2021/03/08 02:19:16;;;;;;;31.75;5.82;;;;;;;;;;5006669;28;20037;-64
2021/03/08 02:22:06;;;;;;;28.08;5.63;;;;;;;;;;5006213;28;20100;-64
2021/03/08 02:24:34;;;;;;;22.23;5.88;;;;;;;;;;5012932;28;20065;-64
2021/03/08 02:27:16;;;;;;;22.00;5.30;;;;;;;;;;5005368;28;20434;-64
2021/03/08 02:29:51;;;;;;;26.90;5.03;;;;;;;;;;5000588;28;20040;-64
2021/03/08 02:32:33;;;;;;;30.30;4.63;;;;;;;;;;5004967;28;20418;-63
2021/03/08 02:35:14;;;;;;;26.77;5.07;;;;;;;;;;5003186;28;20033;-64
2021/03/08 02:37:42;;;;;;;21.63;4.85;;;;;;;;;;5016800;28;20032;-65
2021/03/08 02:40:12;;;;;;;18.90;4.85;;;;;;;;;;5001952;28;20045;-64
2021/03/08 02:42:39;;;;;;;24.17;4.60;;;;;;;;;;5005740;28;20045;-64
2021/03/08 02:45:06;;;;;;;28.05;5.38;;;;;;;;;;4996862;28;20413;-64
2021/03/08 02:47:32;;;;;;;22.13;5.10;;;;;;;;;;5006831;28;20060;-64
2021/03/08 02:50:01;;;;;;;29.92;5.65;;;;;;;;;;5012365;28;20060;-64
2021/03/08 02:52:29;;;;;;;18.40;6.03;;;;;;;;;;5010262;28;20044;-64
2021/03/08 02:54:57;;;;;;;25.55;5.72;;;;;;;;;;5009517;28;20581;-64
2021/03/08 02:57:26;;;;;;;20.75;4.88;;;;;;;;;;5008121;28;20037;-64
2021/03/08 02:59:53;;;;;;;33.40;4.70;;;;;;;;;;5009117;28;20086;-64
2021/03/08 03:02:20;;;;;;;21.30;4.60;;;;;;;;;;5007273;28;20040;-64
2021/03/08 03:04:47;;;;;;;28.13;4.82;;;;;;;;;;5001373;28;20061;-64
2021/03/08 03:07:14;;;;;;;30.77;5.05;;;;;;;;;;5005793;28;20041;-64
2021/03/08 03:09:42;;;;;;;11.77;4.45;;;;;;;;;;5007718;28;20112;-64
2021/03/08 03:12:08;;;;;;;27.58;5.18;;;;;;;;;;5005798;28;20049;-64
2021/03/08 03:14:35;;;;;;;30.92;5.07;;;;;;;;;;5006557;28;20127;-64
2021/03/08 03:17:05;;;;;;;26.40;5.32;;;;;;;;;;5009659;28;20050;-64
2021/03/08 03:19:32;;;;;;;30.90;5.05;;;;;;;;;;5004285;28;20049;-64
2021/03/08 03:21:59;;;;;;;33.17;5.35;;;;;;;;;;5001834;28;20049;-64
2021/03/08 03:24:25;;;;;;;18.85;5.03;;;;;;;;;;5009224;28;20112;-64
2021/03/08 03:26:53;;;;;;;21.10;4.90;;;;;;;;;;5009544;28;20046;-64
2021/03/08 03:29:20;;;;;;;30.05;5.07;;;;;;;;;;5011409;28;20088;-64
2021/03/08 03:31:49;;;;;;;19.55;4.55;;;;;;;;;;5004780;28;20415;-64
2021/03/08 03:34:16;;;;;;;31.17;5.85;;;;;;;;;;4999767;28;20041;-65
2021/03/08 03:36:44;;;;;;;18.13;4.00;;;;;;;;;;5012735;28;20042;-65
2021/03/08 03:39:11;;;;;;;22.15;4.43;;;;;;;;;;5006124;28;20033;-65
2021/03/08 03:41:38;;;;;;;29.40;4.65;;;;;;;;;;4995744;28;20042;-65
2021/03/08 03:44:04;;;;;;;31.92;5.65;;;;;;;;;;5015925;28;20477;-66
2021/03/08 03:46:30;;;;;;;18.48;4.75;;;;;;;;;;5017006;28;20061;-66
2021/03/08 03:48:56;;;;;;;18.38;4.97;;;;;;;;;;5011268;28;20053;-65
2021/03/08 03:51:22;;;;;;;27.25;5.50;;;;;;;;;;5010282;28;20103;-64
2021/03/08 03:53:48;;;;;;;20.75;5.28;;;;;;;;;;5006606;28;20072;-65
2021/03/08 03:56:15;;;;;;;27.52;5.40;;;;;;;;;;5008366;28;20479;-65
2021/03/08 03:58:52;;;;;;;20.77;5.38;;;;;;;;;;5006939;28;20034;-64
2021/03/08 04:01:21;;;;;;;29.17;5.25;;;;;;;;;;5006104;28;20095;-64
2021/03/08 04:04:04;;;;;;;22.30;5.45;;;;;;;;;;5008430;28;20040;-65
2021/03/08 04:06:42;;;;;;;34.35;5.00;;;;;;;;;;5007357;28;20045;-65
2021/03/08 04:09:09;;;;;;;24.42;4.85;;;;;;;;;;5004271;28;20146;-65
2021/03/08 04:11:40;;;;;;;30.90;5.47;;;;;;;;;;5013051;28;20037;-65
2021/03/08 04:14:07;;;;;;;32.03;5.85;;;;;;;;;;5011367;28;20098;-65
2021/03/08 04:16:37;;;;;;;23.27;4.90;;;;;;;;;;5002349;28;20048;-65
2021/03/08 04:19:05;;;;;;;19.45;4.53;;;;;;;;;;5013110;28;20041;-66
2021/03/08 04:21:35;;;;;;;29.27;5.28;;;;;;;;;;5014079;28;20660;-65
2021/03/08 04:24:02;;;;;;;27.50;5.22;;;;;;;;;;5006704;28;20088;-65
2021/03/08 04:26:31;;;;;;;21.77;5.03;;;;;;;;;;5004658;28;20513;-63
2021/03/08 04:28:58;;;;;;;28.13;5.28;;;;;;;;;;5011593;28;20022;-64
2021/03/08 04:31:24;;;;;;;15.82;4.82;;;;;;;;;;5011125;28;20064;-64
2021/03/08 04:33:50;;;;;;;11.45;4.40;;;;;;;;;;5001786;28;20040;-62
2021/03/08 04:36:16;;;;;;;11.77;3.85;;;;;;;;;;5000561;28;20026;-64
2021/03/08 04:38:43;;;;;;;27.23;4.32;;;;;;;;;;5002391;28;20085;-62
2021/03/08 04:41:10;;;;;;;12.93;4.10;;;;;;;;;;5006339;28;20041;-62
2021/03/08 04:43:37;;;;;;;15.85;4.65;;;;;;;;;;5011067;28;20037;-63
2021/03/08 04:46:03;;;;;;;25.15;4.43;;;;;;;;;;5010971;28;20037;-63
2021/03/08 04:48:29;;;;;;;24.52;4.95;;;;;;;;;;4996707;28;21120;-63
2021/03/08 04:50:55;;;;;;;21.52;4.50;;;;;;;;;;5003444;28;20091;-63
2021/03/08 04:53:21;;;;;;;21.90;4.43;;;;;;;;;;5006925;28;20045;-64
2021/03/08 04:55:50;;;;;;;13.80;4.53;;;;;;;;;;5011256;28;20052;-63
2021/03/08 04:58:16;;;;;;;31.85;4.70;;;;;;;;;;4999362;28;20072;-64
2021/03/08 05:00:44;;;;;;;34.20;5.95;;;;;;;;;;5001544;28;20125;-62
2021/03/08 05:03:13;;;;;;;32.03;5.97;;;;;;;;;;5006768;28;20041;-62
2021/03/08 05:05:39;;;;;;;23.00;5.97;;;;;;;;;;4993933;28;20041;-63
2021/03/08 05:08:09;;;;;;;31.17;6.10;;;;;;;;;;5004614;28;20781;-63
2021/03/08 05:10:36;;;;;;;25.90;5.75;;;;;;;;;;5006950;28;20094;-62
2021/03/08 05:13:02;;;;;;;32.92;6.38;;;;;;;;;;5004268;28;20042;-63
2021/03/08 05:15:30;;;;;;;28.35;5.82;;;;;;;;;;5007423;28;20041;-62
2021/03/08 05:17:57;;;;;;;16.73;5.10;;;;;;;;;;5004312;28;20647;-62
2021/03/08 05:20:23;;;;;;;42.55;6.60;;;;;;;;;;5004451;28;20052;-63
2021/03/08 05:22:49;;;;;;;38.00;6.68;;;;;;;;;;5002040;28;20042;-62
2021/03/08 05:25:15;;;;;;;33.28;6.30;;;;;;;;;;4990878;28;20033;-63
2021/03/08 05:27:43;;;;;;;20.85;5.78;;;;;;;;;;5005385;28;20056;-63
2021/03/08 05:30:10;;;;;;;32.15;5.35;;;;;;;;;;5000455;28;20041;-63
2021/03/08 05:32:42;;;;;;;33.15;5.60;;;;;;;;;;4995994;28;20061;-63
2021/03/08 05:35:09;;;;;;;25.20;5.72;;;;;;;;;;5001263;28;20045;-63
2021/03/08 05:37:36;;;;;;;28.13;5.93;;;;;;;;;;4998026;28;20064;-63
2021/03/08 05:40:05;;;;;;;25.58;5.80;;;;;;;;;;4998586;28;20079;-62
2021/03/08 05:42:35;;;;;;;27.77;7.47;;;;;;;;;;4999175;28;20033;-63
2021/03/08 05:45:01;;;;;;;28.30;6.03;;;;;;;;;;5007390;28;20500;-65
2021/03/08 05:47:45;;;;;;;21.10;6.00;;;;;;;;;;5010853;28;20041;-64
2021/03/08 05:50:23;;;;;;;22.10;6.10;;;;;;;;;;5011344;28;20041;-63
2021/03/08 05:53:28;;;;;;;39.75;7.18;;;;;;;;;;5003169;28;20044;-63
2021/03/08 05:55:57;;;;;;;34.28;6.70;;;;;;;;;;4987589;28;20480;-62
2021/03/08 05:58:36;;;;;;;31.10;6.70;;;;;;;;;;4985774;28;20042;-63
2021/03/08 06:01:11;;;;;;;28.20;6.30;;;;;;;;;;5001017;28;20775;-63
2021/03/08 06:03:57;;;;;;;29.27;6.82;;;;;;;;;;5001967;28;20037;-62
2021/03/08 06:06:32;;;;;;;26.67;6.22;;;;;;;;;;5000024;28;20095;-63
2021/03/08 06:09:17;;;;;;;21.63;6.20;;;;;;;;;;5000916;28;20045;-62
2021/03/08 06:11:46;;;;;;;33.53;6.40;;;;;;;;;;5003637;28;20111;-63
2021/03/08 06:14:14;;;;;;;33.20;6.50;;;;;;;;;;5011746;28;20511;-63
2021/03/08 06:16:41;;;;;;;36.65;6.90;;;;;;;;;;5004479;28;20469;-61
2021/03/08 06:19:08;;;;;;;25.30;6.10;;;;;;;;;;5017960;28;20465;-63
2021/03/08 06:21:34;;;;;;;22.88;6.22;;;;;;;;;;4999070;28;20069;-60
2021/03/08 06:24:01;;;;;;;27.02;6.15;;;;;;;;;;5004552;28;20034;-61
2021/03/08 06:26:27;;;;;;;37.45;6.82;;;;;;;;;;5005955;28;20544;-63
2021/03/08 06:28:53;;;;;;;28.92;6.43;;;;;;;;;;4997736;28;20175;-63
2021/03/08 06:31:19;;;;;;;26.00;6.68;;;;;;;;;;5001190;28;20037;-63
2021/03/08 06:33:46;;;;;;;32.05;6.15;;;;;;;;;;4986904;28;20063;-62
2021/03/08 06:36:12;;;;;;;22.17;5.57;;;;;;;;;;5008631;28;20046;-63
2021/03/08 06:38:38;;;;;;;36.55;6.75;;;;;;;;;;4996397;28;20038;-63
2021/03/08 06:41:06;;;;;;;21.80;5.72;;;;;;;;;;4987914;28;20049;-63
2021/03/08 06:43:32;;;;;;;22.27;6.88;;;;;;;;;;4975662;28;20318;-63
2021/03/08 06:45:58;;;;;;;21.15;6.40;;;;;;;;;;4976293;28;21370;-62
2021/03/08 06:48:24;;;;;;;19.67;6.45;;;;;;;;;;5002156;28;20099;-62
2021/03/08 06:51:11;;;;;;;19.02;6.38;;;;;;;;;;5001778;28;20889;-62
2021/03/08 06:53:39;;;;;;;18.83;6.50;;;;;;;;;;5003730;28;20124;-62
2021/03/08 06:56:18;;;;;;;27.23;6.90;;;;;;;;;;4997049;28;20046;-62
2021/03/08 06:58:45;;;;;;;25.15;6.85;;;;;;;;;;5002701;28;20048;-62
2021/03/08 07:01:12;;;;;;;22.83;6.95;;;;;;;;;;5001613;28;20070;-63
2021/03/08 07:03:38;;;;;;;26.55;6.93;;;;;;;;;;5008170;28;20113;-63
2021/03/08 07:06:17;;;;;;;31.65;7.25;;;;;;;;;;5009980;28;20193;-63
2021/03/08 07:08:46;;;;;;;30.98;7.50;;;;;;;;;;5007692;28;20034;-63
2021/03/08 07:11:16;;;;;;;27.98;7.18;;;;;;;;;;5014263;28;20733;-63
2021/03/08 07:13:42;;;;;;;25.45;7.35;;;;;;;;;;5009915;28;20049;-63
2021/03/08 07:16:08;;;;;;;42.00;7.97;;;;;;;;;;4999972;28;20417;-63
2021/03/08 07:18:34;;;;;;;23.42;7.38;;;;;;;;;;4996397;28;20045;-63
2021/03/08 07:21:15;;;;;;;22.83;6.47;;;;;;;;;;5003482;28;20045;-63
2021/03/08 07:23:42;;;;;;;29.27;6.75;;;;;;;;;;5015365;28;20037;-63
2021/03/08 07:26:11;;;;;;;20.65;6.05;;;;;;;;;;5009514;28;20033;-63
2021/03/08 07:28:38;;;;;;;27.42;6.60;;;;;;;;;;5002913;28;20036;-64
2021/03/08 07:31:04;;;;;;;28.13;6.50;;;;;;;;;;5004445;28;20038;-63
2021/03/08 07:33:30;;;;;;;24.63;6.70;;;;;;;;;;4996183;28;20045;-63
2021/03/08 07:35:56;;;;;;;29.25;8.27;;;;;;;;;;4995619;28;20042;-63
2021/03/08 07:38:30;;;;;;;27.42;6.38;;;;;;;;;;5000382;28;20149;-63
2021/03/08 07:41:16;;;;;;;18.80;6.60;;;;;;;;;;5001764;28;20598;-63
2021/03/08 07:43:43;;;;;;;25.85;5.75;;;;;;;;;;4998682;28;20079;-63
2021/03/08 07:46:28;;;;;;;17.80;5.32;;;;;;;;;;5004541;28;20042;-63
2021/03/08 07:48:55;;;;;;;20.38;6.03;;;;;;;;;;5007091;28;20041;-63
2021/03/08 07:51:23;;;;;;;23.85;5.78;;;;;;;;;;5011361;28;20065;-63
2021/03/08 07:53:57;;;;;;;20.10;5.88;;;;;;;;;;5013556;28;20033;-64
2021/03/08 07:56:26;;;;;;;28.60;5.55;;;;;;;;;;5008942;28;20045;-63
2021/03/08 07:58:53;;;;;;;23.80;4.55;;;;;;;;;;5009525;28;20519;-64
2021/03/08 08:01:19;;;;;;;16.02;4.70;;;;;;;;;;5004143;28;20326;-64
2021/03/08 08:03:45;;;;;;;18.38;5.00;;;;;;;;;;5013200;28;20060;-63
2021/03/08 08:06:20;;;;;;;14.05;4.57;;;;;;;;;;4992276;28;20107;-63
2021/03/08 08:08:59;;;;;;;19.95;4.28;;;;;;;;;;5001159;28;20048;-63
2021/03/08 08:11:28;;;;;;;12.85;4.15;;;;;;;;;;5014999;28;20091;-63
2021/03/08 08:13:58;;;;;;;14.75;4.53;;;;;;;;;;5007324;28;20076;-64
2021/03/08 08:16:28;;;;;;;12.52;4.53;;;;;;;;;;5006196;28;20492;-64
2021/03/08 08:18:58;;;;;;;15.63;4.80;;;;;;;;;;5000053;28;20547;-64
2021/03/08 08:21:24;;;;;;;14.10;4.65;;;;;;;;;;5005561;28;20041;-63
2021/03/08 08:23:57;;;;;;;22.00;5.07;;;;;;;;;;5007587;28;20587;-64
2021/03/08 08:26:25;;;;;;;22.38;5.60;;;;;;;;;;5011631;28;20147;-63
2021/03/08 08:28:51;;;;;;;18.17;5.35;;;;;;;;;;4995356;28;20050;-64
2021/03/08 08:31:17;;;;;;;18.27;6.47;;;;;;;;;;5001253;28;20096;-64
2021/03/08 08:33:43;;;;;;;22.27;6.97;;;;;;;;;;4999965;28;20243;-64
2021/03/08 08:36:12;;;;;;;21.90;7.53;;;;;;;;;;5006280;28;20452;-64
2021/03/08 08:38:46;;;;;;;20.55;6.28;;;;;;;;;;4994485;28;20037;-64
2021/03/08 08:41:18;;;;;;;24.50;7.10;;;;;;;;;;5006850;28;20037;-64
2021/03/08 08:43:44;;;;;;;32.83;8.18;;;;;;;;;;4994751;28;25478;-64
2021/03/08 08:46:23;;;;;;;32.13;7.10;;;;;;;;;;5005210;28;20069;-64
2021/03/08 08:49:08;;;;;;;17.85;7.32;;;;;;;;;;5003942;28;20034;-64
2021/03/08 08:51:53;;;;;;;16.88;6.13;;;;;;;;;;5008357;28;20038;-64
2021/03/08 08:54:28;;;;;;;15.90;5.68;;;;;;;;;;5004515;28;20033;-64
2021/03/08 08:56:57;;;;;;;18.23;5.50;;;;;;;;;;4998395;28;20440;-63
2021/03/08 08:59:24;;;;;;;23.35;4.95;;;;;;;;;;5011880;28;20053;-64
2021/03/08 09:01:50;;;;;;;12.07;4.40;;;;;;;;;;5012048;28;20026;-64
2021/03/08 09:04:18;;;;;;;13.45;3.47;;;;;;;;;;5010791;28;20124;-64
2021/03/08 09:06:48;;;;;;;10.65;4.03;;;;;;;;;;5001045;28;20117;-64
2021/03/08 09:09:16;;;;;;;12.07;3.97;;;;;;;;;;5008159;28;20548;-64
2021/03/08 09:11:50;;;;;;;12.02;3.90;;;;;;;;;;5003657;28;20041;-64
2021/03/08 09:14:27;;;;;;;11.48;3.33;;;;;;;;;;5013991;28;20032;-64
2021/03/08 09:17:15;;;;;;;10.30;3.22;;;;;;;;;;5008549;28;20052;-64
2021/03/08 09:19:45;;;;;;;12.35;4.15;;;;;;;;;;5005165;28;20038;-63
2021/03/08 09:22:23;;;;;;;12.20;3.30;;;;;;;;;;4997500;28;20514;-63
2021/03/08 09:24:53;;;;;;;11.23;3.15;;;11.30;46.30;;;;;;5001395;28;20030;-64
2021/03/08 09:27:26;;;;;;;12.70;2.85;;;10.30;65.70;;;;;;4996919;28;20056;-64
2021/03/08 09:29:54;;;;;;;10.75;3.35;;;12.50;60.50;;;;;;5007339;28;20041;-65
2021/03/08 09:32:22;;;;;;;10.15;2.72;;;14.30;55.60;;;;;;5013862;28;20099;-65
2021/03/08 09:34:47;;;;;;;10.82;2.67;;;16.00;52.00;;;;;;5008932;28;20039;-65
2021/03/08 09:37:17;;;;;;;7.10;2.72;;;17.50;48.30;;;;;;5004105;28;20681;-65
2021/03/08 09:39:54;;;;;;;9.27;2.55;;;18.70;45.20;;;;;;5002296;28;20068;-66
2021/03/08 09:42:21;;;;;;;7.55;1.85;;;19.60;41.70;;;;;;4995856;28;20064;-66
2021/03/08 09:44:49;;;;;;;4.07;2.22;;;20.20;40.20;;;;;;5001447;28;20041;-66
2021/03/08 09:47:23;;;;;;;6.88;2.00;;;21.00;38.70;;;;;;5003139;28;20029;-66
2021/03/08 09:49:54;;;;;;;6.68;2.33;;;21.80;35.40;;;;;;5003291;28;20520;-66
2021/03/08 09:52:39;;;;;;;9.05;2.53;;;22.70;32.00;;;;;;5008195;28;20696;-67
2021/03/08 09:55:10;;;;;;;11.00;1.85;;;23.20;30.30;;;;;;5001816;28;20119;-67
2021/03/08 09:57:38;;;;;;;7.32;2.08;;;23.80;29.00;;;;;;5015529;28;20241;-67
2021/03/08 10:00:08;;;;;;;7.45;2.55;;;24.20;28.00;;;;;;5002481;28;20041;-66
2021/03/08 10:02:34;;;;;;;9.40;2.22;;;24.50;26.70;;;;;;5001092;28;20045;-67
2021/03/08 10:05:00;;;;;;;11.38;2.35;;;24.70;26.20;;;;;;5008468;28;20044;-66
2021/03/08 10:07:26;;;;;;;7.03;2.20;;;25.10;25.70;;;;;;5013945;28;20516;-67
2021/03/08 10:10:13;;;;;;;4.75;1.70;;;25.40;25.00;;;;;;5015608;28;20060;-67
2021/03/08 10:12:39;;;;;;;4.88;1.83;;;25.60;24.50;;;;;;5009786;28;20034;-68
2021/03/08 10:15:09;;;;;;;10.07;2.47;;;25.90;24.10;;;;;;5006767;28;20088;-66
2021/03/08 10:17:50;;;;;;;5.35;2.28;;;26.10;23.60;;;;;;5006140;28;20049;-67
2021/03/08 10:20:16;;;;;;;11.68;2.20;;;26.20;23.30;;;;;;5003426;28;20036;-68
2021/03/08 10:22:41;;;;;;;8.18;2.28;;;26.30;23.10;;;;;;5010921;28;20518;-68
2021/03/08 10:25:25;;;;;;;6.38;2.15;;;26.40;23.40;;;;;;5010540;28;20036;-67
2021/03/08 10:27:58;;;;;;;5.55;2.10;;;26.60;22.60;;;;;;5008838;28;20759;-67
2021/03/08 10:30:29;;;;;;;5.70;2.00;;;26.80;22.40;;;;;;5007111;28;20029;-67
2021/03/08 10:33:11;;;;;;;3.85;2.00;;;26.70;21.80;;;;;;5005191;28;20637;-68
2021/03/08 10:35:43;;;;;;;3.75;1.60;;;26.50;21.40;;;;;;5001799;28;20038;-68
2021/03/08 10:38:10;;;;;;;3.40;1.67;;;26.30;21.80;;;;;;5005001;28;20044;-67
2021/03/08 10:40:36;;;;;;;4.07;1.67;;;26.50;21.20;;;;;;5001839;28;20042;-67
2021/03/08 10:43:02;;;;;;;3.38;1.85;;;26.80;21.10;;;;;;5004548;28;20048;-66
2021/03/08 10:45:28;;;;;;;6.00;1.67;;;27.00;20.70;;;;;;5007259;28;20038;-67
2021/03/08 10:48:12;;;;;;;7.05;1.88;;;27.10;20.80;;;;;;5007314;28;20416;-67
2021/03/08 10:50:40;;;;;;;2.75;1.17;;;27.20;20.10;;;;;;5009353;28;20044;-67
2021/03/08 10:53:06;;;;;;;2.30;1.20;;;27.50;19.50;;;;;;5004726;28;20042;-67
2021/03/08 10:55:33;;;;;;;3.80;1.15;;;27.60;18.90;;;;;;5004887;28;20038;-67
2021/03/08 10:57:59;;;;;;;2.55;1.30;;;27.70;18.20;;;;;;5005615;28;20605;-67
2021/03/08 11:00:25;;;;;;;2.28;1.23;;;27.70;18.70;;;;;;5011096;28;20045;-66
2021/03/08 11:02:50;;;;;;;4.28;1.48;;;27.80;17.90;;;;;;5003255;28;20045;-67
2021/03/08 11:05:18;;;;;;;7.60;1.42;;;27.80;17.60;;;;;;5004375;28;20042;-67
2021/03/08 11:07:44;;;;;;;4.57;1.30;;;27.80;17.60;;;;;;5009012;28;20041;-66
2021/03/08 11:10:10;;;;;;;2.33;1.40;;;27.60;18.00;;;;;;5003787;28;20045;-66
2021/03/08 11:12:39;;;;;;;2.03;1.05;;;27.50;18.20;;;;;;4998290;28;20464;-66
2021/03/08 11:15:08;;;;;;;3.28;1.50;;;27.60;18.10;;;;;;5003201;28;20060;-65
2021/03/08 11:17:41;;;;;;;4.53;1.35;;;27.90;18.20;;;;;;5003845;28;20037;-65
2021/03/08 11:20:12;;;;;;;4.70;1.20;;;28.20;18.30;;;;;;5009527;28;20049;-65
2021/03/08 11:23:01;;;;;;;3.17;1.17;;;28.60;17.70;;;;;;5006939;28;20049;-66
2021/03/08 11:25:38;;;;;;;2.97;1.13;;;28.90;17.60;;;;;;5010031;28;20040;-65
2021/03/08 11:28:13;;;;;;;4.10;1.60;;;29.00;17.40;;;;;;4997621;28;20122;-65
2021/03/08 11:30:43;;;;;;;4.93;1.33;;;28.90;17.30;;;;;;5014548;28;20041;-66
2021/03/08 11:33:11;;;;;;;4.00;1.10;;;28.50;17.60;;;;;;5009192;28;20132;-65
2021/03/08 11:35:38;;;;;;;5.07;1.10;;;27.90;16.90;;;;;;5003861;28;20034;-65
2021/03/08 11:38:15;;;;;;;2.22;1.00;;;27.50;16.50;;;;;;5009406;28;20045;-65
2021/03/08 11:40:46;;;;;;;2.33;1.13;;;27.40;17.50;;;;;;5002687;28;20041;-65
2021/03/08 11:43:15;;;;;;;2.90;1.13;;;27.50;17.00;;;;;;5003534;28;20120;-65
2021/03/08 11:45:43;;;;;;;4.60;1.40;;;27.60;17.10;;;;;;5013815;28;20124;-65
2021/03/08 11:48:11;;;;;;;3.15;1.10;;;27.70;16.70;;;;;;5003821;28;20045;-65
2021/03/08 11:50:39;;;;;;;3.65;1.00;;;27.50;16.60;;;;;;5006577;28;20524;-65
2021/03/08 11:53:05;;;;;;;4.05;1.38;;;27.50;16.70;;;;;;5011248;28;20945;-65
2021/03/08 11:55:31;;;;;;;2.80;1.30;;;27.50;16.40;;;;;;5011604;28;20041;-65
2021/03/08 11:57:57;;;;;;;1.90;1.20;;;27.60;16.80;;;;;;5008314;28;20037;-65
2021/03/08 12:00:25;;;;;;;2.50;1.48;;;27.80;16.70;;;;;;5011098;28;21801;-65
2021/03/08 12:02:51;;;;;;;5.18;1.10;;;27.80;16.90;;;;;;5007330;28;20615;-64
2021/03/08 12:05:17;;;;;;;4.82;1.15;;;27.50;17.10;;;;;;5009846;28;20469;-64
2021/03/08 12:07:45;;;;;;;3.38;1.02;;;27.40;16.70;;;;;;5010566;28;20680;-65
2021/03/08 12:10:15;;;;;;;3.28;1.48;;;27.20;16.70;;;;;;5017884;28;20091;-65
2021/03/08 12:12:41;;;;;;;3.88;1.13;;;27.10;17.00;;;;;;5014581;28;20048;-65
2021/03/08 12:15:08;;;;;;;3.00;1.30;;;27.00;16.80;;;;;;5011082;28;20045;-65
2021/03/08 12:17:35;;;;;;;7.13;1.55;;;27.00;16.90;;;;;;5003164;28;20123;-65
2021/03/08 12:20:01;;;;;;;5.15;1.38;;;26.80;16.20;;;;;;5007929;28;20485;-64
2021/03/08 12:22:26;;;;;;;3.03;1.20;;;;;;;;;;4997519;28;20052;-64
2021/03/08 12:24:56;;;;;;;2.83;1.23;;;;;;;;;;4997053;28;20085;-67
2021/03/08 12:27:22;;;;;;;3.60;1.48;;;;;;;;;;5009923;28;20128;-65
2021/03/08 12:29:50;;;;;;;4.78;1.48;;;;;;;;;;5000043;28;20037;-65
2021/03/08 12:32:16;;;;;;;4.25;1.15;;;;;;;;;;4995905;28;20214;-65
2021/03/08 12:34:42;;;;;;;2.17;1.30;;;;;;;;;;5003994;28;20535;-66
2021/03/08 12:37:10;;;;;;;3.60;0.98;;;26.50;16.20;;;;;;5009286;28;20061;-65
2021/03/08 12:39:35;;;;;;;3.42;1.35;;;24.40;17.60;;;;;;5006617;28;20591;-65
2021/03/08 12:42:01;;;;;;;3.00;1.13;;;;;;;;;;5009097;28;20039;-65
2021/03/08 12:44:27;;;;;;;2.20;1.10;;;;;;;;;;5002003;28;20385;-65
2021/03/08 12:46:53;;;;;;;3.40;1.10;;;;;;;;;;5011294;28;20413;-65
2021/03/08 12:49:19;;;;;;;2.22;1.00;;;;;;;;;;5000371;28;20042;-65
2021/03/08 12:51:45;;;;;;;2.35;1.08;;;;;;;;;;5001069;28;20034;-65
2021/03/08 12:54:11;;;;;;;2.65;1.10;;;;;;;;;;4999325;28;20045;-65
2021/03/08 12:56:37;;;;;;;2.33;1.30;;;;;;;;;;5006618;28;20067;-64
2021/03/08 12:59:03;;;;;;;4.75;1.45;;;;;;;;;;5000458;28;20033;-65
2021/03/08 13:01:29;;;;;;;0.80;0.80;;;;;;;;;;4999609;28;20052;-64
2021/03/08 13:03:55;;;;;;;2.67;1.15;;;;;;;;;;5004410;28;20517;-64
2021/03/08 13:06:21;;;;;;;1.25;1.00;;;;;;;;;;5014991;28;20062;-64
2021/03/08 13:08:47;;;;;;;1.98;1.13;;;;;;;;;;4995414;28;20037;-65
2021/03/08 13:11:13;;;;;;;1.25;0.95;;;;;;;;;;4998233;28;20685;-64
2021/03/08 13:13:39;;;;;;;2.88;1.10;;;;;;;;;;5006949;28;20395;-64
2021/03/08 13:16:05;;;;;;;2.60;1.13;;;;;;;;;;5006390;28;20123;-64
2021/03/08 13:18:33;;;;;;;7.38;1.40;;;;;;;;;;5001896;28;20071;-64
2021/03/08 13:23:52;;;;;;;2.78;1.17;;;;;;;;;;5011705;28;20048;-64
2021/03/08 13:26:18;;;;;;;4.15;1.35;;;;;;;;;;5020607;28;20037;-64
2021/03/08 13:28:43;;;;;;;3.25;1.20;;;;;;;;;;5002749;28;20865;-64
2021/03/08 13:31:10;;;;;;;2.40;1.02;;;;;;;;;;5002853;28;20037;-64
2021/03/08 13:33:36;;;;;;;4.00;1.20;;;;;;;;;;4997058;28;20252;-64
2021/03/08 13:36:02;;;;;;;1.27;0.90;;;;;;;;;;5000629;28;20680;-64
2021/03/08 13:38:28;;;;;;;2.63;1.00;;;;;;;;;;5013952;28;20048;-64
2021/03/08 13:40:54;;;;;;;5.47;1.63;;;;;;;;;;5002310;28;20175;-64
2021/03/08 13:43:20;;;;;;;4.30;1.50;;;;;;;;;;5005839;28;20053;-64
2021/03/08 13:45:46;;;;;;;2.50;1.08;;;;;;;;;;4998880;28;20038;-64
2021/03/08 13:48:12;;;;;;;4.07;1.38;;;;;;;;;;5013863;28;20048;-64
2021/03/08 13:50:41;;;;;;;3.05;1.50;;;;;;;;;;5001442;28;20033;-65
2021/03/08 13:53:07;;;;;;;5.55;1.50;;;;;;;;;;5018408;28;20500;-63
2021/03/08 13:55:33;;;;;;;3.72;1.30;;;;;;;;;;4997693;28;20041;-64
2021/03/08 13:57:59;;;;;;;2.55;1.33;;;;;;;;;;5002749;28;20045;-63
2021/03/08 14:00:25;;;;;;;3.47;1.30;;;;;;;;;;5008735;28;20041;-64
2021/03/08 14:02:51;;;;;;;4.70;1.30;;;;;;;;;;5012323;28;20044;-64
2021/03/08 14:05:17;;;;;;;2.40;1.00;;;;;;;;;;5012819;28;20833;-64
2021/03/08 14:07:43;;;;;;;2.88;1.08;;;;;;;;;;4998633;28;20075;-64
2021/03/08 14:10:09;;;;;;;5.63;1.85;;;;;;;;;;5003199;28;20041;-63
2021/03/08 14:12:36;;;;;;;5.50;1.20;;;;;;;;;;5012108;28;20037;-63
2021/03/08 14:15:02;;;;;;;4.50;1.42;;;;;;;;;;5006882;28;20111;-64
2021/03/08 14:17:30;;;;;;;5.38;1.40;;;;;;;;;;5009489;28;20044;-63
2021/03/08 14:19:56;;;;;;;3.30;1.45;;;;;;;;;;4998767;28;20044;-65